createdAt,value
2023-04-11T00:00:50.742Z,411.00
2023-04-11T00:01:50.873Z,400.00
2023-04-11T00:02:50.957Z,400.00
2023-04-11T00:03:51.116Z,400.00
2023-04-11T00:04:50.976Z,400.00
2023-04-11T00:05:51.019Z,400.00
2023-04-11T00:06:51.065Z,400.00
2023-04-11T00:07:51.119Z,400.00
2023-04-11T00:08:51.180Z,413.00
2023-04-11T00:09:51.250Z,444.00
2023-04-11T00:10:51.336Z,477.00
2023-04-11T00:11:51.361Z,500.00
2023-04-11T00:12:51.418Z,501.00
2023-04-11T00:13:51.437Z,500.00
2023-04-11T00:14:51.473Z,501.00
2023-04-11T00:15:51.537Z,503.00
2023-04-11T00:16:51.673Z,500.00
2023-04-11T00:17:51.726Z,501.00
2023-04-11T00:18:51.722Z,501.00
2023-04-11T00:20:01.244Z,501.00
2023-04-11T00:20:51.735Z,502.00
2023-04-11T00:21:51.728Z,502.00
2023-04-11T00:22:51.716Z,495.00
2023-04-11T00:23:51.714Z,489.00
2023-04-11T00:24:51.720Z,477.00
2023-04-11T00:25:51.697Z,500.00
2023-04-11T00:26:51.722Z,500.00
2023-04-11T00:27:51.682Z,503.00
2023-04-11T00:28:51.677Z,500.00
2023-04-11T00:29:51.668Z,506.00
2023-04-11T00:30:51.677Z,503.00
2023-04-11T00:31:51.683Z,506.00
2023-04-11T00:32:51.682Z,502.00
2023-04-11T00:33:51.656Z,503.00
2023-04-11T00:34:51.636Z,503.00
2023-04-11T00:35:51.673Z,502.00
2023-04-11T00:36:51.679Z,500.00
2023-04-11T00:37:51.653Z,507.00
2023-04-11T00:38:51.605Z,503.00
2023-04-11T00:39:51.604Z,501.00
2023-04-11T00:40:51.591Z,501.00
2023-04-11T00:41:51.581Z,500.00
2023-04-11T00:42:51.629Z,507.00
2023-04-11T00:43:51.684Z,505.00
2023-04-11T00:44:51.748Z,500.00
2023-04-11T00:45:51.806Z,506.00
2023-04-11T00:46:51.842Z,503.00
2023-04-11T00:47:51.995Z,506.00
2023-04-11T00:48:51.941Z,504.00
2023-04-11T00:49:52.011Z,503.00
2023-04-11T00:50:52.072Z,507.00
2023-04-11T00:51:52.113Z,500.00
2023-04-11T00:52:52.168Z,502.00
2023-04-11T00:53:52.214Z,502.00
2023-04-11T00:54:52.288Z,501.00
2023-04-11T00:55:52.329Z,503.00
2023-04-11T00:56:52.392Z,503.00
2023-04-11T00:57:52.448Z,500.00
2023-04-11T00:58:52.535Z,505.00
2023-04-11T00:59:52.578Z,501.00
2023-04-11T01:00:52.699Z,509.00
2023-04-11T01:01:52.899Z,507.00
2023-04-11T01:02:53.031Z,501.00
2023-04-11T01:03:52.875Z,509.00
2023-04-11T01:04:52.870Z,507.00
2023-04-11T01:05:52.917Z,506.00
2023-04-11T01:06:53.000Z,503.00
2023-04-11T01:07:53.021Z,504.00
2023-04-11T01:08:53.343Z,507.00
2023-04-11T01:09:53.117Z,506.00
2023-04-11T01:10:53.177Z,506.00
2023-04-11T01:11:53.241Z,506.00
2023-04-11T01:12:53.299Z,500.00
2023-04-11T01:13:53.358Z,502.00
2023-04-11T01:14:53.420Z,506.00
2023-04-11T01:15:53.442Z,503.00
2023-04-11T01:16:53.522Z,504.00
2023-04-11T01:17:53.567Z,507.00
2023-04-11T01:18:53.852Z,505.00
2023-04-11T01:19:53.658Z,503.00
2023-04-11T01:20:53.715Z,505.00
2023-04-11T01:21:53.771Z,507.00
2023-04-11T01:22:53.829Z,503.00
2023-04-11T01:23:53.878Z,509.00
2023-04-11T01:24:53.923Z,504.00
2023-04-11T01:25:53.975Z,507.00
2023-04-11T01:26:54.043Z,509.00
2023-04-11T01:27:54.115Z,507.00
2023-04-11T01:28:54.375Z,506.00
2023-04-11T01:29:54.205Z,506.00
2023-04-11T01:30:54.312Z,513.00
2023-04-11T01:31:54.309Z,505.00
2023-04-11T01:32:54.396Z,510.00
2023-04-11T01:33:54.418Z,509.00
2023-04-11T01:34:54.459Z,504.00
2023-04-11T01:35:54.532Z,507.00
2023-04-11T01:36:54.540Z,503.00
2023-04-11T01:37:54.562Z,504.00
2023-04-11T01:38:54.959Z,503.00
2023-04-11T01:39:54.665Z,504.00
2023-04-11T01:40:54.700Z,502.00
2023-04-11T01:41:54.737Z,506.00
2023-04-11T01:42:54.792Z,507.00
2023-04-11T01:43:54.858Z,509.00
2023-04-11T01:44:54.897Z,507.00
2023-04-11T01:45:54.947Z,510.00
2023-04-11T01:46:55.034Z,510.00
2023-04-11T01:47:55.141Z,506.00
2023-04-11T01:48:55.542Z,506.00
2023-04-11T01:49:55.181Z,511.00
2023-04-11T01:50:55.235Z,504.00
2023-04-11T01:51:55.298Z,507.00
2023-04-11T01:52:55.334Z,506.00
2023-04-11T01:53:55.388Z,500.00
2023-04-11T01:54:55.410Z,508.00
2023-04-11T01:55:55.457Z,503.00
2023-04-11T01:56:55.503Z,510.00
2023-04-11T01:57:55.562Z,504.00
2023-04-11T01:58:55.788Z,511.00
2023-04-11T01:59:55.678Z,502.00
2023-04-11T02:00:55.745Z,509.00
2023-04-11T02:01:55.843Z,508.00
2023-04-11T02:02:56.022Z,505.00
2023-04-11T02:03:56.046Z,508.00
2023-04-11T02:04:55.960Z,512.00
2023-04-11T02:05:56.033Z,512.00
2023-04-11T02:06:56.091Z,510.00
2023-04-11T02:07:56.130Z,509.00
2023-04-11T02:08:56.335Z,512.00
2023-04-11T02:09:56.261Z,516.00
2023-04-11T02:10:56.301Z,512.00
2023-04-11T02:11:56.365Z,513.00
2023-04-11T02:12:56.444Z,512.00
2023-04-11T02:13:56.477Z,510.00
2023-04-11T02:14:56.564Z,513.00
2023-04-11T02:15:56.613Z,515.00
2023-04-11T02:16:56.648Z,510.00
2023-04-11T02:17:56.726Z,508.00
2023-04-11T02:18:56.926Z,507.00
2023-04-11T02:19:56.797Z,509.00
2023-04-11T02:20:56.852Z,507.00
2023-04-11T02:21:56.916Z,509.00
2023-04-11T02:22:56.974Z,505.00
2023-04-11T02:23:57.038Z,514.00
2023-04-11T02:24:57.121Z,511.00
2023-04-11T02:25:57.177Z,506.00
2023-04-11T02:26:57.227Z,513.00
2023-04-11T02:27:57.282Z,512.00
2023-04-11T02:28:57.553Z,514.00
2023-04-11T02:29:57.402Z,513.00
2023-04-11T02:30:57.535Z,509.00
2023-04-11T02:31:57.651Z,512.00
2023-04-11T02:32:57.599Z,512.00
2023-04-11T02:33:57.615Z,513.00
2023-04-11T02:34:57.691Z,510.00
2023-04-11T02:35:57.730Z,507.00
2023-04-11T02:36:57.827Z,508.00
2023-04-11T02:37:57.835Z,517.00
2023-04-11T02:38:57.889Z,516.00
2023-04-11T02:39:57.945Z,515.00
2023-04-11T02:40:57.998Z,512.00
2023-04-11T02:41:58.043Z,514.00
2023-04-11T02:42:58.113Z,514.00
2023-04-11T02:43:58.177Z,511.00
2023-04-11T02:44:58.216Z,507.00
2023-04-11T02:46:09.530Z,507.00
2023-04-11T02:46:58.266Z,507.00
2023-04-11T02:47:58.271Z,509.00
2023-04-11T02:48:58.295Z,512.00
2023-04-11T02:49:58.226Z,516.00
2023-04-11T02:50:58.241Z,514.00
2023-04-11T02:51:58.228Z,514.00
2023-04-11T02:52:58.201Z,520.00
2023-04-11T02:53:58.206Z,511.00
2023-04-11T02:54:58.188Z,514.00
2023-04-11T02:55:58.194Z,515.00
2023-04-11T02:56:58.186Z,516.00
2023-04-11T02:57:58.170Z,515.00
2023-04-11T02:58:58.855Z,511.00
2023-04-11T02:59:58.160Z,509.00
2023-04-11T03:00:58.144Z,517.00
2023-04-11T03:01:58.311Z,515.00
2023-04-11T03:02:58.202Z,510.00
2023-04-11T03:03:58.209Z,514.00
2023-04-11T03:04:58.111Z,510.00
2023-04-11T03:05:58.113Z,513.00
2023-04-11T03:06:58.132Z,514.00
2023-04-11T03:07:58.111Z,508.00
2023-04-11T03:08:58.322Z,514.00
2023-04-11T03:09:58.090Z,512.00
2023-04-11T03:10:58.148Z,509.00
2023-04-11T03:11:58.221Z,507.00
2023-04-11T03:12:58.273Z,514.00
2023-04-11T03:13:58.336Z,512.00
2023-04-11T03:14:58.384Z,510.00
2023-04-11T03:15:58.457Z,517.00
2023-04-11T03:16:58.496Z,511.00
2023-04-11T03:17:58.633Z,508.00
2023-04-11T03:18:58.639Z,511.00
2023-04-11T03:19:58.675Z,511.00
2023-04-11T03:20:58.738Z,510.00
2023-04-11T03:21:58.795Z,514.00
2023-04-11T03:22:58.877Z,511.00
2023-04-11T03:23:58.901Z,507.00
2023-04-11T03:24:58.945Z,510.00
2023-04-11T03:25:59.028Z,511.00
2023-04-11T03:26:59.062Z,507.00
2023-04-11T03:27:59.132Z,515.00
2023-04-11T03:28:59.173Z,516.00
2023-04-11T03:29:59.194Z,509.00
2023-04-11T03:30:59.265Z,511.00
2023-04-11T03:31:59.313Z,513.00
2023-04-11T03:32:59.391Z,509.00
2023-04-11T03:33:59.420Z,509.00
2023-04-11T03:34:59.451Z,512.00
2023-04-11T03:35:59.502Z,506.00
2023-04-11T03:36:59.555Z,512.00
2023-04-11T03:37:59.605Z,513.00
2023-04-11T03:38:59.694Z,512.00
2023-04-11T03:39:59.699Z,508.00
2023-04-11T03:40:59.756Z,509.00
2023-04-11T03:41:59.801Z,511.00
2023-04-11T03:43:00.257Z,507.00
2023-04-11T03:43:59.900Z,515.00
2023-04-11T03:44:59.947Z,514.00
2023-04-11T03:45:59.999Z,508.00
2023-04-11T03:47:00.071Z,512.00
2023-04-11T03:48:00.129Z,509.00
2023-04-11T03:49:00.171Z,513.00
2023-04-11T03:50:00.192Z,508.00
2023-04-11T03:51:00.230Z,512.00
2023-04-11T03:52:00.283Z,511.00
2023-04-11T03:53:00.355Z,510.00
2023-04-11T03:54:00.414Z,509.00
2023-04-11T03:55:00.487Z,510.00
2023-04-11T03:56:00.504Z,510.00
2023-04-11T03:57:00.540Z,507.00
2023-04-11T03:58:00.615Z,508.00
2023-04-11T03:59:00.669Z,509.00
2023-04-11T04:00:00.722Z,509.00
2023-04-11T04:01:00.767Z,511.00
2023-04-11T04:02:00.880Z,509.00
2023-04-11T04:03:01.040Z,507.00
2023-04-11T04:04:01.317Z,514.00
2023-04-11T04:05:01.014Z,514.00
2023-04-11T04:06:01.029Z,510.00
2023-04-11T04:07:01.070Z,514.00
2023-04-11T04:08:01.111Z,511.00
2023-04-11T04:09:01.145Z,512.00
2023-04-11T04:10:01.167Z,508.00
2023-04-11T04:11:01.227Z,510.00
2023-04-11T04:12:01.244Z,516.00
2023-04-11T04:13:01.298Z,508.00
2023-04-11T04:14:01.361Z,501.00
2023-04-11T04:15:01.410Z,512.00
2023-04-11T04:16:03.498Z,506.00
2023-04-11T04:17:01.468Z,517.00
2023-04-11T04:18:01.502Z,516.00
2023-04-11T04:19:01.454Z,514.00
2023-04-11T04:20:01.435Z,513.00
2023-04-11T04:21:01.435Z,510.00
2023-04-11T04:22:01.439Z,518.00
2023-04-11T04:23:01.415Z,514.00
2023-04-11T04:24:01.414Z,518.00
2023-04-11T04:25:01.412Z,510.00
2023-04-11T04:26:01.456Z,518.00
2023-04-11T04:27:01.419Z,516.00
2023-04-11T04:28:01.376Z,515.00
2023-04-11T04:29:01.387Z,512.00
2023-04-11T04:30:04.229Z,513.00
2023-04-11T04:31:01.366Z,514.00
2023-04-11T04:32:01.425Z,514.00
2023-04-11T04:33:01.395Z,515.00
2023-04-11T04:34:01.358Z,519.00
2023-04-11T04:35:01.358Z,523.00
2023-04-11T04:36:01.425Z,516.00
2023-04-11T04:37:01.320Z,515.00
2023-04-11T04:38:01.318Z,518.00
2023-04-11T04:39:01.302Z,519.00
2023-04-11T04:40:01.308Z,518.00
2023-04-11T04:41:01.285Z,518.00
2023-04-11T04:42:01.285Z,522.00
2023-04-11T04:43:01.310Z,520.00
2023-04-11T04:44:01.285Z,518.00
2023-04-11T04:45:01.298Z,514.00
2023-04-11T04:46:01.347Z,519.00
2023-04-11T04:47:01.245Z,520.00
2023-04-11T04:48:01.252Z,514.00
2023-04-11T04:49:02.416Z,515.00
2023-04-11T04:50:01.226Z,514.00
2023-04-11T04:51:01.246Z,519.00
2023-04-11T04:52:01.290Z,518.00
2023-04-11T04:53:01.345Z,516.00
2023-04-11T04:54:01.398Z,519.00
2023-04-11T04:55:01.557Z,514.00
2023-04-11T04:56:01.530Z,520.00
2023-04-11T04:57:01.544Z,524.00
2023-04-11T04:58:01.618Z,521.00
2023-04-11T04:59:01.674Z,516.00
2023-04-11T05:00:01.680Z,520.00
2023-04-11T05:01:01.754Z,523.00
2023-04-11T05:02:01.851Z,519.00
2023-04-11T05:03:01.953Z,522.00
2023-04-11T05:04:02.583Z,519.00
2023-04-11T05:05:01.930Z,522.00
2023-04-11T05:06:02.255Z,518.00
2023-04-11T05:07:02.028Z,520.00
2023-04-11T05:08:02.094Z,523.00
2023-04-11T05:09:02.134Z,521.00
2023-04-11T05:10:02.194Z,523.00
2023-04-11T05:11:02.251Z,518.00
2023-04-11T05:12:02.315Z,520.00
2023-04-11T05:13:02.367Z,524.00
2023-04-11T05:14:02.416Z,527.00
2023-04-11T05:15:02.483Z,518.00
2023-04-11T05:16:02.583Z,518.00
2023-04-11T05:17:02.617Z,520.00
2023-04-11T05:18:02.642Z,516.00
2023-04-11T05:19:02.608Z,519.00
2023-04-11T05:20:02.656Z,517.00
2023-04-11T05:21:02.757Z,522.00
2023-04-11T05:22:02.773Z,523.00
2023-04-11T05:23:02.808Z,524.00
2023-04-11T05:24:02.849Z,527.00
2023-04-11T05:25:02.899Z,533.00
2023-04-11T05:26:02.948Z,533.00
2023-04-11T05:27:02.997Z,537.00
2023-04-11T05:28:03.052Z,536.00
2023-04-11T05:29:03.135Z,531.00
2023-04-11T05:30:03.675Z,537.00
2023-04-11T05:31:03.855Z,537.00
2023-04-11T05:32:03.246Z,536.00
2023-04-11T05:33:03.871Z,537.00
2023-04-11T05:34:03.345Z,536.00
2023-04-11T05:35:03.384Z,532.00
2023-04-11T05:36:03.443Z,533.00
2023-04-11T05:37:03.459Z,537.00
2023-04-11T05:38:03.532Z,546.00
2023-04-11T05:39:03.575Z,534.00
2023-04-11T05:40:03.649Z,537.00
2023-04-11T05:41:03.741Z,539.00
2023-04-11T05:42:04.119Z,544.00
2023-04-11T05:43:03.836Z,547.00
2023-04-11T05:44:04.241Z,554.00
2023-04-11T05:45:03.970Z,566.00
2023-04-11T05:46:04.048Z,566.00
2023-04-11T05:47:04.066Z,573.00
2023-04-11T05:48:04.110Z,574.00
2023-04-11T05:49:04.241Z,576.00
2023-04-11T05:50:04.172Z,571.00
2023-04-11T05:51:04.232Z,581.00
2023-04-11T05:52:04.268Z,585.00
2023-04-11T05:53:04.762Z,591.00
2023-04-11T05:54:04.773Z,602.00
2023-04-11T05:55:04.475Z,607.00
2023-04-11T05:56:04.545Z,617.00
2023-04-11T05:57:04.586Z,620.00
2023-04-11T05:58:05.771Z,633.00
2023-04-11T05:59:04.653Z,638.00
2023-04-11T06:00:07.974Z,639.00
2023-04-11T06:01:04.681Z,639.00
2023-04-11T06:02:04.958Z,642.00
2023-04-11T06:03:04.766Z,644.00
2023-04-11T06:04:05.168Z,652.00
2023-04-11T06:05:04.703Z,663.00
2023-04-11T06:06:04.659Z,663.00
2023-04-11T06:07:06.732Z,673.00
2023-04-11T06:08:12.055Z,682.00
2023-04-11T06:09:12.068Z,684.00
2023-04-11T06:10:04.787Z,685.00
2023-04-11T06:11:04.629Z,697.00
2023-04-11T06:12:04.646Z,715.00
2023-04-11T06:13:05.594Z,729.00
2023-04-11T06:14:05.782Z,781.00
2023-04-11T06:15:05.590Z,787.00
2023-04-11T06:16:04.634Z,802.00
2023-04-11T06:17:04.552Z,790.00
2023-04-11T06:18:04.841Z,795.00
2023-04-11T06:19:04.647Z,810.00
2023-04-11T06:20:06.016Z,812.00
2023-04-11T06:21:06.010Z,810.00
2023-04-11T06:22:04.851Z,824.00
2023-04-11T06:23:04.910Z,834.00
2023-04-11T06:24:05.256Z,811.00
2023-04-11T06:25:05.049Z,842.00
2023-04-11T06:26:05.747Z,828.00
2023-04-11T06:27:05.153Z,837.00
2023-04-11T06:28:05.206Z,847.00
2023-04-11T06:29:05.273Z,847.00
2023-04-11T06:30:05.347Z,843.00
2023-04-11T06:31:05.435Z,853.00
2023-04-11T06:32:06.481Z,836.00
2023-04-11T06:33:05.884Z,822.00
2023-04-11T06:34:05.608Z,824.00
2023-04-11T06:35:05.681Z,830.00
2023-04-11T06:36:06.214Z,826.00
2023-04-11T06:37:06.764Z,828.00
2023-04-11T06:38:06.293Z,842.00
2023-04-11T06:39:05.846Z,847.00
2023-04-11T06:40:05.897Z,855.00
2023-04-11T06:41:05.976Z,880.00
2023-04-11T06:42:06.028Z,902.00
2023-04-11T06:43:06.290Z,953.00
2023-04-11T06:44:06.130Z,995.00
2023-04-11T06:45:06.351Z,1020.00
2023-04-11T06:46:06.263Z,1014.00
2023-04-11T06:47:06.242Z,1052.00
2023-04-11T06:48:06.304Z,1095.00
2023-04-11T06:49:06.317Z,1123.00
2023-04-11T06:50:06.360Z,1147.00
2023-04-11T06:51:06.443Z,1175.00
2023-04-11T06:52:06.361Z,1184.00
2023-04-11T06:53:06.768Z,1199.00
2023-04-11T06:54:06.790Z,1197.00
2023-04-11T06:55:06.350Z,1187.00
2023-04-11T06:56:06.372Z,1187.00
2023-04-11T06:57:06.413Z,1183.00
2023-04-11T06:58:06.417Z,1166.00
2023-04-11T06:59:06.815Z,1178.00
2023-04-11T07:00:06.412Z,1157.00
2023-04-11T07:01:07.437Z,1192.00
2023-04-11T07:02:06.550Z,1192.00
2023-04-11T07:03:06.663Z,1187.00
2023-04-11T07:04:06.847Z,1206.00
2023-04-11T07:05:06.510Z,1212.00
2023-04-11T07:06:06.545Z,1228.00
2023-04-11T07:07:06.599Z,1241.00
2023-04-11T07:08:06.599Z,1259.00
2023-04-11T07:09:06.579Z,1251.00
2023-04-11T07:10:06.621Z,1250.00
2023-04-11T07:11:06.642Z,1251.00
2023-04-11T07:12:06.671Z,1255.00
2023-04-11T07:13:06.687Z,1281.00
2023-04-11T07:14:06.730Z,1278.00
2023-04-11T07:15:06.767Z,1278.00
2023-04-11T07:16:06.827Z,1270.00
2023-04-11T07:17:06.866Z,1272.00
2023-04-11T07:18:06.978Z,1291.00
2023-04-11T07:19:06.985Z,1298.00
2023-04-11T07:20:07.278Z,1283.00
2023-04-11T07:21:07.038Z,1288.00
2023-04-11T07:22:07.074Z,1292.00
2023-04-11T07:23:07.118Z,1291.00
2023-04-11T07:24:07.278Z,1308.00
2023-04-11T07:25:07.176Z,1286.00
2023-04-11T07:26:07.285Z,1304.00
2023-04-11T07:27:07.288Z,1295.00
2023-04-11T07:28:07.365Z,1288.00
2023-04-11T07:30:06.446Z,1308.00
2023-04-11T07:31:07.859Z,1306.00
2023-04-11T07:32:07.579Z,1298.00
2023-04-11T07:33:08.103Z,1309.00
2023-04-11T07:34:07.690Z,1302.00
2023-04-11T07:35:07.837Z,1297.00
2023-04-11T07:36:07.850Z,1304.00
2023-04-11T07:37:07.856Z,1308.00
2023-04-11T07:38:07.909Z,1311.00
2023-04-11T07:39:07.993Z,1216.00
2023-04-11T07:40:08.327Z,1266.00
2023-04-11T07:41:08.290Z,1196.00
2023-04-11T07:42:08.110Z,1245.00
2023-04-11T07:43:08.180Z,1281.00
2023-04-11T07:44:08.287Z,1301.00
2023-04-11T07:45:08.177Z,1321.00
2023-04-11T07:46:08.256Z,1341.00
2023-04-11T07:47:08.196Z,1379.00
2023-04-11T07:48:08.295Z,1393.00
2023-04-11T07:49:08.286Z,1419.00
2023-04-11T07:50:08.326Z,1448.00
2023-04-11T07:51:08.398Z,1473.00
2023-04-11T07:52:08.448Z,1462.00
2023-04-11T07:53:08.788Z,1485.00
2023-04-11T07:54:08.537Z,1495.00
2023-04-11T07:55:08.608Z,1508.00
2023-04-11T07:56:08.963Z,1524.00
2023-04-11T07:57:08.707Z,1529.00
2023-04-11T07:58:08.747Z,1569.00
2023-04-11T07:59:08.806Z,1561.00
2023-04-11T08:00:10.957Z,1570.00
2023-04-11T08:01:09.296Z,1605.00
2023-04-11T08:02:09.838Z,1639.00
2023-04-11T08:03:09.424Z,1677.00
2023-04-11T08:04:09.685Z,1716.00
2023-04-11T08:05:09.065Z,1711.00
2023-04-11T08:06:09.386Z,1690.00
2023-04-11T08:07:08.810Z,1707.00
2023-04-11T08:08:08.801Z,1703.00
2023-04-11T08:09:08.788Z,1714.00
2023-04-11T08:10:08.804Z,1723.00
2023-04-11T08:11:08.812Z,1726.00
2023-04-11T08:12:08.799Z,1713.00
2023-04-11T08:13:08.766Z,1717.00
2023-04-11T08:14:08.793Z,1733.00
2023-04-11T08:15:08.848Z,1739.00
2023-04-11T08:16:09.360Z,1721.00
2023-04-11T08:17:17.648Z,1718.00
2023-04-11T08:18:12.107Z,1720.00
2023-04-11T08:19:09.326Z,1721.00
2023-04-11T08:20:08.962Z,1725.00
2023-04-11T08:21:08.930Z,1731.00
2023-04-11T08:22:08.949Z,1741.00
2023-04-11T08:23:09.001Z,1747.00
2023-04-11T08:24:09.323Z,1749.00
2023-04-11T08:25:08.928Z,1752.00
2023-04-11T08:26:09.304Z,1750.00
2023-04-11T08:27:08.931Z,1767.00
2023-04-11T08:28:09.911Z,1772.00
2023-04-11T08:29:08.903Z,1780.00
2023-04-11T08:30:08.876Z,1789.00
2023-04-11T08:31:09.399Z,1787.00
2023-04-11T08:32:09.307Z,1782.00
2023-04-11T08:33:08.852Z,1775.00
2023-04-11T08:34:09.442Z,1779.00
2023-04-11T08:35:15.814Z,1767.00
2023-04-11T08:36:08.855Z,1769.00
2023-04-11T08:37:08.817Z,1774.00
2023-04-11T08:38:08.820Z,1781.00
2023-04-11T08:39:08.948Z,1794.00
2023-04-11T08:40:08.811Z,1791.00
2023-04-11T08:41:08.813Z,1783.00
2023-04-11T08:42:08.805Z,1789.00
2023-04-11T08:43:08.818Z,1771.00
2023-04-11T08:44:08.902Z,1784.00
2023-04-11T08:45:09.055Z,1773.00
2023-04-11T08:46:09.188Z,1779.00
2023-04-11T08:47:08.755Z,1770.00
2023-04-11T08:48:09.625Z,1773.00
2023-04-11T08:49:08.919Z,1765.00
2023-04-11T08:50:09.653Z,1769.00
2023-04-11T08:51:09.026Z,1754.00
2023-04-11T08:52:09.065Z,1751.00
2023-04-11T08:53:09.379Z,1747.00
2023-04-11T08:54:10.069Z,1751.00
2023-04-11T08:55:09.438Z,1743.00
2023-04-11T08:56:09.319Z,1759.00
2023-04-11T08:57:09.282Z,1755.00
2023-04-11T08:58:09.248Z,1745.00
2023-04-11T08:59:09.517Z,1732.00
2023-04-11T09:00:09.145Z,1736.00
2023-04-11T09:01:09.383Z,1729.00
2023-04-11T09:02:09.363Z,1715.00
2023-04-11T09:03:09.398Z,1704.00
2023-04-11T09:04:09.434Z,1714.00
2023-04-11T09:05:10.301Z,1713.00
2023-04-11T09:06:09.641Z,1731.00
2023-04-11T09:07:09.519Z,1723.00
2023-04-11T09:08:09.147Z,1710.00
2023-04-11T09:09:08.099Z,1724.00
2023-04-11T09:10:09.527Z,1716.00
2023-04-11T09:11:09.337Z,1711.00
2023-04-11T09:12:09.052Z,1698.00
2023-04-11T09:13:09.043Z,1695.00
2023-04-11T09:14:09.342Z,1688.00
2023-04-11T09:15:09.474Z,1701.00
2023-04-11T09:16:09.178Z,1688.00
2023-04-11T09:17:09.031Z,1699.00
2023-04-11T09:18:09.024Z,1677.00
2023-04-11T09:19:09.013Z,1672.00
2023-04-11T09:20:09.345Z,1674.00
2023-04-11T09:21:08.989Z,1671.00
2023-04-11T09:22:08.998Z,1669.00
2023-04-11T09:23:08.999Z,1684.00
2023-04-11T09:24:09.342Z,1681.00
2023-04-11T09:25:08.969Z,1678.00
2023-04-11T09:26:08.977Z,1663.00
2023-04-11T09:27:08.998Z,1656.00
2023-04-11T09:28:09.028Z,1654.00
2023-04-11T09:29:09.345Z,1655.00
2023-04-11T09:30:09.356Z,1665.00
2023-04-11T09:31:09.140Z,1658.00
2023-04-11T09:32:09.357Z,1672.00
2023-04-11T09:33:09.193Z,1661.00
2023-04-11T09:34:09.351Z,1654.00
2023-04-11T09:35:09.284Z,1655.00
2023-04-11T09:36:09.358Z,1662.00
2023-04-11T09:37:09.373Z,1663.00
2023-04-11T09:38:09.427Z,1636.00
2023-04-11T09:39:09.853Z,1649.00
2023-04-11T09:40:09.517Z,1638.00
2023-04-11T09:41:09.864Z,1643.00
2023-04-11T09:42:09.856Z,1649.00
2023-04-11T09:43:09.722Z,1654.00
2023-04-11T09:44:09.760Z,1642.00
2023-04-11T09:45:17.210Z,1630.00
2023-04-11T09:46:09.962Z,1632.00
2023-04-11T09:47:09.830Z,1638.00
2023-04-11T09:48:09.865Z,1643.00
2023-04-11T09:50:08.783Z,1469.00
2023-04-11T09:51:11.490Z,1444.00
2023-04-11T09:52:09.856Z,1504.00
2023-04-11T09:53:09.765Z,1512.00
2023-04-11T09:54:09.855Z,1531.00
2023-04-11T09:55:10.162Z,1542.00
2023-04-11T09:56:09.758Z,1557.00
2023-04-11T09:57:09.861Z,1593.00
2023-04-11T09:58:09.964Z,1587.00
2023-04-11T09:59:09.709Z,1599.00
2023-04-11T10:00:09.712Z,1610.00
2023-04-11T10:01:09.947Z,1623.00
2023-04-11T10:02:09.765Z,1651.00
2023-04-11T10:03:09.862Z,1675.00
2023-04-11T10:04:09.904Z,1668.00
2023-04-11T10:05:10.009Z,1667.00
2023-04-11T10:06:09.666Z,1688.00
2023-04-11T10:07:10.052Z,1714.00
2023-04-11T10:08:10.089Z,1715.00
2023-04-11T10:09:09.992Z,1726.00
2023-04-11T10:10:10.653Z,1755.00
2023-04-11T10:11:09.916Z,1760.00
2023-04-11T10:12:10.011Z,1779.00
2023-04-11T10:13:09.610Z,1819.00
2023-04-11T10:14:09.616Z,1851.00
2023-04-11T10:15:09.644Z,1875.00
2023-04-11T10:16:10.384Z,1895.00
2023-04-11T10:17:09.873Z,1909.00
2023-04-11T10:18:09.749Z,1940.00
2023-04-11T10:19:09.801Z,1951.00
2023-04-11T10:20:09.787Z,1968.00
2023-04-11T10:21:09.827Z,1997.00
2023-04-11T10:22:09.868Z,2008.00
2023-04-11T10:23:10.372Z,2012.00
2023-04-11T10:24:09.957Z,2040.00
2023-04-11T10:25:09.937Z,2029.00
2023-04-11T10:26:11.024Z,2049.00
2023-04-11T10:27:10.366Z,2039.00
2023-04-11T10:28:10.031Z,1957.00
2023-04-11T10:29:10.372Z,1858.00
2023-04-11T10:30:10.128Z,1932.00
2023-04-11T10:31:10.377Z,1938.00
2023-04-11T10:32:10.870Z,1885.00
2023-04-11T10:33:13.605Z,1835.00
2023-04-11T10:34:10.285Z,1826.00
2023-04-11T10:35:10.285Z,1788.00
2023-04-11T10:36:10.716Z,1764.00
2023-04-11T10:37:10.472Z,1788.00
2023-04-11T10:38:10.563Z,1790.00
2023-04-11T10:39:10.372Z,1810.00
2023-04-11T10:40:10.558Z,1811.00
2023-04-11T10:41:10.277Z,1826.00
2023-04-11T10:42:10.221Z,1838.00
2023-04-11T10:43:10.206Z,1868.00
2023-04-11T10:44:10.375Z,1895.00
2023-04-11T10:45:10.234Z,1911.00
2023-04-11T10:46:10.180Z,1926.00
2023-04-11T10:47:10.221Z,1939.00
2023-04-11T10:48:10.187Z,1966.00
2023-04-11T10:49:10.383Z,1998.00
2023-04-11T10:50:10.166Z,2033.00
2023-04-11T10:51:10.181Z,2043.00
2023-04-11T10:52:10.145Z,2039.00
2023-04-11T10:53:10.384Z,2072.00
2023-04-11T10:54:10.381Z,2098.00
2023-04-11T10:55:10.144Z,2139.00
2023-04-11T10:56:10.129Z,2158.00
2023-04-11T10:57:10.116Z,2186.00
2023-04-11T10:58:10.384Z,2197.00
2023-04-11T10:59:10.395Z,2184.00
2023-04-11T11:00:10.113Z,2200.00
2023-04-11T11:01:13.234Z,2212.00
2023-04-11T11:02:10.144Z,2215.00
2023-04-11T11:03:10.194Z,2224.00
2023-04-11T11:04:10.831Z,2241.00
2023-04-11T11:05:10.104Z,2288.00
2023-04-11T11:06:10.424Z,2306.00
2023-04-11T11:07:10.072Z,2332.00
2023-04-11T11:08:10.311Z,2370.00
2023-04-11T11:09:11.005Z,2377.00
2023-04-11T11:10:10.043Z,2406.00
2023-04-11T11:11:10.117Z,2396.00
2023-04-11T11:12:10.157Z,2404.00
2023-04-11T11:13:10.418Z,2402.00
2023-04-11T11:14:10.094Z,2440.00
2023-04-11T11:15:10.122Z,2426.00
2023-04-11T11:16:10.224Z,2451.00
2023-04-11T11:17:10.246Z,2494.00
2023-04-11T11:18:10.392Z,2512.00
2023-04-11T11:19:10.372Z,2516.00
2023-04-11T11:20:10.421Z,2511.00
2023-04-11T11:21:14.209Z,2530.00
2023-04-11T11:22:10.461Z,2532.00
2023-04-11T11:23:10.910Z,2240.00
2023-04-11T11:24:10.884Z,1823.00
2023-04-11T11:25:10.449Z,1659.00
2023-04-11T11:26:10.428Z,1492.00
2023-04-11T11:27:10.430Z,1458.00
2023-04-11T11:28:10.418Z,1417.00
2023-04-11T11:29:10.892Z,1316.00
2023-04-11T11:30:10.410Z,1343.00
2023-04-11T11:31:10.397Z,1377.00
2023-04-11T11:32:10.414Z,1413.00
2023-04-11T11:33:10.444Z,1440.00
2023-04-11T11:35:09.374Z,1474.00
2023-04-11T11:36:10.410Z,1479.00
2023-04-11T11:37:10.356Z,1497.00
2023-04-11T11:38:10.399Z,1511.00
2023-04-11T11:39:10.370Z,1549.00
2023-04-11T11:40:10.333Z,1568.00
2023-04-11T11:41:10.334Z,1592.00
2023-04-11T11:42:10.346Z,1610.00
2023-04-11T11:43:10.391Z,1620.00
2023-04-11T11:44:10.304Z,1674.00
2023-04-11T11:45:10.312Z,1675.00
2023-04-11T11:46:10.331Z,1695.00
2023-04-11T11:47:10.307Z,1719.00
2023-04-11T11:48:10.406Z,1725.00
2023-04-11T11:49:10.285Z,1754.00
2023-04-11T11:50:10.301Z,1511.00
2023-04-11T11:51:10.284Z,894.00
2023-04-11T11:52:10.259Z,844.00
2023-04-11T11:53:10.256Z,831.00
2023-04-11T11:54:10.373Z,857.00
2023-04-11T11:55:11.459Z,861.00
2023-04-11T11:56:10.242Z,986.00
2023-04-11T11:57:10.354Z,1145.00
2023-04-11T11:58:10.406Z,1218.00
2023-04-11T11:59:10.279Z,1190.00
2023-04-11T12:00:10.346Z,1144.00
2023-04-11T12:01:10.370Z,1122.00
2023-04-11T12:02:10.512Z,1098.00
2023-04-11T12:03:10.580Z,1116.00
2023-04-11T12:04:10.656Z,1079.00
2023-04-11T12:05:10.625Z,1052.00
2023-04-11T12:06:10.617Z,1058.00
2023-04-11T12:07:10.716Z,1061.00
2023-04-11T12:08:10.913Z,1067.00
2023-04-11T12:09:10.785Z,1062.00
2023-04-11T12:10:10.837Z,1053.00
2023-04-11T12:11:10.915Z,1047.00
2023-04-11T12:12:10.942Z,1045.00
2023-04-11T12:13:11.408Z,1066.00
2023-04-11T12:14:11.055Z,1070.00
2023-04-11T12:15:11.119Z,1082.00
2023-04-11T12:16:11.510Z,1079.00
2023-04-11T12:17:11.199Z,1083.00
2023-04-11T12:18:11.331Z,1066.00
2023-04-11T12:19:11.305Z,1080.00
2023-04-11T12:20:11.346Z,1071.00
2023-04-11T12:21:11.353Z,1070.00
2023-04-11T12:22:11.689Z,1070.00